createdAt,value
2022-10-20T00:01:19.396Z,74.40
2022-10-20T00:03:47.502Z,74.40
2022-10-20T00:06:16.219Z,74.40
2022-10-20T00:08:43.995Z,74.40
2022-10-20T00:11:13.475Z,74.40
2022-10-20T00:13:41.597Z,74.40
2022-10-20T00:16:09.157Z,74.40
2022-10-20T00:18:36.134Z,74.40
2022-10-20T00:21:14.566Z,74.40
2022-10-20T00:23:44.593Z,74.40
2022-10-20T00:26:20.705Z,74.40
2022-10-20T00:28:47.909Z,74.40
2022-10-20T00:31:15.632Z,74.40
2022-10-20T00:33:42.631Z,74.50
2022-10-20T00:36:13.214Z,74.40
2022-10-20T00:38:40.331Z,74.50
2022-10-20T00:41:07.953Z,74.40
2022-10-20T00:43:41.577Z,74.40
2022-10-20T00:46:08.589Z,74.50
2022-10-20T00:48:35.555Z,74.40
2022-10-20T00:51:02.667Z,74.40
2022-10-20T00:53:30.823Z,74.50
2022-10-20T00:55:59.112Z,74.50
2022-10-20T00:58:26.380Z,74.50
2022-10-20T01:00:57.889Z,74.40
2022-10-20T01:03:36.424Z,74.40
2022-10-20T01:06:04.479Z,74.40
2022-10-20T01:08:31.350Z,74.50
2022-10-20T01:11:18.608Z,74.50
2022-10-20T01:14:06.925Z,74.50
2022-10-20T01:16:39.847Z,74.50
2022-10-20T01:19:25.971Z,74.50
2022-10-20T01:22:01.720Z,74.50
2022-10-20T01:24:43.736Z,74.50
2022-10-20T01:27:40.060Z,74.50
2022-10-20T01:30:11.046Z,74.50
2022-10-20T01:32:55.315Z,74.50
2022-10-20T01:35:32.391Z,74.50
2022-10-20T01:38:12.673Z,74.50
2022-10-20T01:40:45.275Z,74.50
2022-10-20T01:43:15.241Z,74.50
2022-10-20T01:45:46.101Z,74.60
2022-10-20T01:48:16.166Z,74.60
2022-10-20T01:50:43.884Z,74.60
2022-10-20T01:53:10.939Z,74.60
2022-10-20T01:55:39.907Z,74.60
2022-10-20T01:58:24.739Z,74.60
2022-10-20T02:00:54.319Z,74.60
2022-10-20T02:03:39.722Z,74.60
2022-10-20T02:06:27.781Z,74.60
2022-10-20T02:08:58.246Z,74.60
2022-10-20T02:11:42.228Z,74.60
2022-10-20T02:14:12.727Z,74.60
2022-10-20T02:16:48.743Z,74.60
2022-10-20T02:19:18.760Z,74.60
2022-10-20T02:21:46.472Z,74.60
2022-10-20T02:24:16.150Z,74.60
2022-10-20T02:26:44.393Z,74.60
2022-10-20T02:29:16.125Z,74.60
2022-10-20T02:31:45.013Z,74.60
2022-10-20T02:34:12.962Z,74.60
2022-10-20T02:36:42.990Z,74.60
2022-10-20T02:39:10.585Z,74.60
2022-10-20T02:41:37.817Z,74.60
2022-10-20T02:44:05.346Z,74.60
2022-10-20T02:46:32.256Z,74.60
2022-10-20T02:48:59.084Z,74.60
2022-10-20T02:51:25.986Z,74.60
2022-10-20T02:53:54.877Z,74.60
2022-10-20T02:56:24.433Z,74.60
2022-10-20T02:58:53.508Z,74.60
2022-10-20T03:01:20.506Z,74.60
2022-10-20T03:03:47.375Z,74.60
2022-10-20T03:06:16.201Z,74.60
2022-10-20T03:08:44.744Z,74.60
2022-10-20T03:11:11.604Z,74.60
2022-10-20T03:13:38.536Z,74.60
2022-10-20T03:16:05.594Z,74.60
2022-10-20T03:18:32.435Z,74.60
2022-10-20T03:20:59.637Z,74.60
2022-10-20T03:23:26.561Z,74.60
2022-10-20T03:25:53.489Z,74.70
2022-10-20T03:28:20.349Z,74.60
2022-10-20T03:30:47.226Z,74.70
2022-10-20T03:33:14.102Z,74.70
2022-10-20T03:35:40.962Z,74.70
2022-10-20T03:38:07.802Z,74.70
2022-10-20T03:40:34.692Z,74.70
2022-10-20T03:43:01.684Z,74.70
2022-10-20T03:45:28.596Z,74.70
2022-10-20T03:47:55.441Z,74.70
2022-10-20T03:50:22.640Z,74.70
2022-10-20T03:52:49.894Z,74.70
2022-10-20T03:55:20.644Z,74.70
2022-10-20T03:57:47.509Z,74.70
2022-10-20T04:00:15.747Z,74.70
2022-10-20T04:02:46.755Z,74.70
2022-10-20T04:05:16.679Z,74.70
2022-10-20T04:07:47.113Z,74.70
2022-10-20T04:10:16.305Z,74.70
2022-10-20T04:12:43.430Z,74.70
2022-10-20T04:15:10.881Z,74.70
2022-10-20T04:17:40.978Z,74.70
2022-10-20T04:20:09.187Z,74.60
2022-10-20T04:22:36.385Z,74.70
2022-10-20T04:25:04.143Z,74.60
2022-10-20T04:27:31.020Z,74.60
2022-10-20T04:29:58.107Z,74.60
2022-10-20T04:32:25.053Z,74.60
2022-10-20T04:34:51.929Z,74.60
2022-10-20T04:37:18.901Z,74.60
2022-10-20T04:39:46.914Z,74.60
2022-10-20T04:42:13.850Z,74.60
2022-10-20T04:44:40.719Z,74.60
2022-10-20T04:47:07.639Z,74.60
2022-10-20T04:49:34.524Z,74.60
2022-10-20T04:52:01.474Z,74.60
2022-10-20T04:54:28.982Z,74.60
2022-10-20T04:56:56.663Z,74.60
2022-10-20T04:59:23.514Z,74.70
2022-10-20T05:01:50.538Z,74.60
2022-10-20T05:04:21.357Z,74.60
2022-10-20T05:06:49.528Z,74.60
2022-10-20T05:09:18.181Z,74.60
2022-10-20T05:11:45.316Z,74.70
2022-10-20T05:14:13.326Z,74.70
2022-10-20T05:16:40.261Z,74.70
2022-10-20T05:19:07.152Z,74.70
2022-10-20T05:21:34.743Z,74.80
2022-10-20T05:24:04.018Z,74.80
2022-10-20T05:26:37.430Z,74.80
2022-10-20T05:29:07.235Z,74.90
2022-10-20T05:31:42.091Z,74.90
2022-10-20T05:34:10.562Z,74.90
2022-10-20T05:36:37.684Z,74.90
2022-10-20T05:39:04.788Z,74.90
2022-10-20T05:41:36.354Z,74.90
2022-10-20T05:44:09.908Z,74.90
2022-10-20T05:46:42.621Z,75.00
2022-10-20T05:49:17.632Z,75.00
2022-10-20T05:51:45.869Z,75.00
2022-10-20T05:54:13.831Z,75.00
2022-10-20T05:56:41.000Z,75.10
2022-10-20T05:59:08.273Z,75.10
2022-10-20T06:01:50.352Z,75.10
2022-10-20T06:04:20.276Z,75.10
2022-10-20T06:06:48.966Z,75.10
2022-10-20T06:09:17.151Z,75.10
2022-10-20T06:11:44.084Z,75.10
2022-10-20T06:14:11.624Z,75.10
2022-10-20T06:16:41.477Z,75.10
2022-10-20T06:19:15.907Z,75.10
2022-10-20T06:24:15.219Z,75.10
2022-10-20T06:26:43.682Z,75.10
2022-10-20T06:29:14.191Z,75.10
2022-10-20T06:31:44.161Z,75.10
2022-10-20T06:34:15.725Z,75.00
2022-10-20T06:36:45.700Z,75.00
2022-10-20T06:39:15.799Z,75.00
2022-10-20T06:41:42.812Z,75.00
2022-10-20T06:44:09.839Z,75.00
2022-10-20T06:46:37.667Z,75.00
2022-10-20T06:49:07.140Z,75.00
2022-10-20T06:51:35.689Z,75.00
2022-10-20T06:54:02.741Z,75.00
2022-10-20T06:56:31.851Z,75.00
2022-10-20T06:59:02.756Z,75.00
2022-10-20T07:01:34.950Z,75.00
2022-10-20T07:04:07.948Z,75.00
2022-10-20T07:06:38.938Z,75.00
2022-10-20T07:09:12.315Z,75.00
2022-10-20T07:14:06.847Z,75.00
2022-10-20T07:16:35.118Z,75.00
2022-10-20T07:19:03.704Z,75.00
2022-10-20T07:21:35.749Z,75.00
2022-10-20T07:24:06.039Z,75.00
2022-10-20T07:26:36.187Z,75.00
2022-10-20T07:29:06.488Z,75.00
2022-10-20T07:31:45.845Z,75.00
2022-10-20T07:34:24.910Z,75.00
2022-10-20T07:36:53.222Z,75.00
2022-10-20T07:39:23.483Z,75.00
2022-10-20T07:41:50.713Z,75.00
2022-10-20T07:44:18.010Z,75.00
2022-10-20T07:46:45.301Z,75.00
2022-10-20T07:51:59.589Z,75.00
2022-10-20T07:54:26.523Z,75.00
2022-10-20T07:56:53.497Z,75.00
2022-10-20T07:59:20.547Z,75.00
2022-10-20T08:01:47.654Z,75.00
2022-10-20T08:04:14.587Z,75.00
2022-10-20T08:06:41.673Z,75.00
2022-10-20T08:09:08.803Z,75.00
2022-10-20T08:11:36.095Z,75.00
2022-10-20T08:14:03.118Z,75.00
2022-10-20T08:16:48.789Z,75.00
2022-10-20T08:19:24.136Z,75.00
2022-10-20T08:21:51.037Z,75.00
2022-10-20T08:24:18.036Z,75.00
2022-10-20T08:26:45.116Z,75.00
2022-10-20T08:29:12.538Z,75.00
2022-10-20T08:31:40.676Z,75.00
2022-10-20T08:34:08.205Z,75.00
2022-10-20T08:36:37.244Z,75.00
2022-10-20T08:39:06.229Z,75.00
2022-10-20T08:42:07.524Z,75.00
2022-10-20T08:44:30.850Z,75.00
2022-10-20T08:47:03.631Z,75.00
2022-10-20T08:49:35.309Z,75.00
2022-10-20T08:52:02.925Z,75.00
2022-10-20T08:54:34.105Z,75.00
2022-10-20T08:57:01.161Z,75.00
2022-10-20T08:59:36.569Z,75.00
2022-10-20T09:02:15.732Z,75.00
2022-10-20T09:04:53.051Z,75.00
2022-10-20T09:07:32.040Z,75.10
2022-10-20T09:10:16.139Z,75.10
2022-10-20T09:12:46.668Z,75.10
2022-10-20T09:15:15.880Z,75.10
2022-10-20T09:17:48.600Z,75.10
2022-10-20T09:20:26.133Z,75.10
2022-10-20T09:22:53.143Z,75.00
2022-10-20T09:25:24.149Z,75.00
2022-10-20T09:27:51.914Z,75.00
2022-10-20T09:30:21.010Z,75.00
2022-10-20T09:32:48.978Z,75.00
2022-10-20T09:35:42.220Z,75.10
2022-10-20T09:38:18.333Z,75.30
2022-10-20T09:40:56.717Z,75.40
2022-10-20T09:43:25.871Z,75.40
2022-10-20T09:45:56.354Z,75.40
2022-10-20T09:48:31.606Z,75.40
2022-10-20T09:50:59.236Z,75.40
2022-10-20T09:53:46.431Z,75.40
2022-10-20T09:56:22.529Z,75.30
2022-10-20T09:58:49.479Z,75.30
2022-10-20T10:01:18.380Z,75.30
2022-10-20T10:03:51.754Z,75.30
2022-10-20T10:06:31.019Z,75.30
2022-10-20T10:09:00.871Z,75.30
2022-10-20T10:11:36.045Z,75.20
2022-10-20T10:14:04.001Z,75.20
2022-10-20T10:16:41.912Z,75.20
2022-10-20T10:19:18.346Z,75.20
2022-10-20T10:22:03.197Z,75.20
2022-10-20T10:24:39.740Z,75.20
2022-10-20T10:27:29.127Z,75.10
2022-10-20T10:30:17.025Z,75.10
2022-10-20T10:32:47.305Z,75.10
2022-10-20T10:35:24.663Z,75.10
2022-10-20T10:37:53.328Z,75.10
2022-10-20T10:40:26.886Z,75.10
2022-10-20T10:43:12.480Z,75.10
2022-10-20T10:45:53.876Z,75.10
2022-10-20T10:48:48.327Z,75.10
2022-10-20T10:51:15.654Z,75.10
2022-10-20T10:53:53.796Z,75.10
2022-10-20T10:56:41.793Z,75.10
2022-10-20T10:59:16.014Z,75.10
2022-10-20T11:02:07.589Z,75.10
2022-10-20T11:05:09.223Z,75.10
2022-10-20T11:07:58.751Z,75.10
2022-10-20T11:11:20.271Z,75.10
2022-10-20T11:17:19.118Z,75.00
2022-10-20T11:19:51.897Z,75.00
2022-10-20T11:22:42.439Z,75.00
2022-10-20T11:25:28.175Z,75.00
2022-10-20T11:27:57.559Z,75.00
2022-10-20T11:30:27.509Z,75.00
2022-10-20T11:33:09.143Z,75.00
2022-10-20T11:35:55.650Z,75.00
2022-10-20T11:38:45.335Z,75.00
2022-10-20T11:41:20.966Z,75.00
2022-10-20T11:44:01.475Z,75.10
2022-10-20T11:46:51.167Z,75.10
2022-10-20T11:49:19.128Z,75.10
2022-10-20T11:52:32.303Z,75.10
2022-10-20T11:55:30.014Z,75.10
2022-10-20T11:58:33.316Z,75.10
2022-10-20T12:01:27.651Z,75.10
2022-10-20T12:04:09.000Z,75.10
2022-10-20T12:06:54.362Z,75.00
2022-10-20T12:09:47.504Z,75.10
2022-10-20T12:12:28.265Z,75.10
2022-10-20T12:15:02.976Z,75.20
2022-10-20T12:17:41.493Z,75.30
2022-10-20T12:20:28.695Z,75.30
2022-10-20T12:22:59.249Z,75.30
2022-10-20T12:25:26.183Z,75.50
2022-10-20T12:28:20.886Z,75.50
2022-10-20T12:30:59.690Z,75.50
2022-10-20T12:33:54.746Z,75.50
2022-10-20T12:36:36.920Z,75.50
2022-10-20T12:39:12.852Z,75.50
2022-10-20T12:41:55.657Z,75.50
2022-10-20T12:44:25.362Z,75.50
2022-10-20T12:47:03.261Z,75.50
2022-10-20T12:49:37.404Z,75.50
2022-10-20T12:52:16.805Z,75.50
2022-10-20T12:54:48.484Z,75.50
2022-10-20T12:57:42.807Z,75.50
2022-10-20T13:00:22.551Z,75.50
2022-10-20T13:02:58.914Z,75.50
2022-10-20T13:05:44.348Z,75.50
2022-10-20T13:08:25.196Z,75.50
2022-10-20T13:10:54.118Z,75.60
2022-10-20T13:13:21.232Z,75.60
2022-10-20T13:15:54.531Z,75.60
2022-10-20T13:18:34.404Z,75.60
2022-10-20T13:21:10.316Z,75.60
2022-10-20T13:23:41.690Z,75.50
2022-10-20T13:26:29.824Z,75.50
2022-10-20T13:29:00.940Z,75.50
2022-10-20T13:31:33.675Z,75.60
2022-10-20T13:34:27.619Z,75.50
2022-10-20T13:37:12.417Z,75.70
2022-10-20T13:39:59.739Z,75.70
2022-10-20T13:42:52.683Z,75.80
2022-10-20T13:45:45.262Z,75.90
2022-10-20T13:48:24.396Z,75.80
2022-10-20T13:50:59.575Z,76.00
2022-10-20T13:53:31.281Z,76.00
2022-10-20T13:56:09.099Z,76.10
2022-10-20T13:58:42.228Z,76.00
2022-10-20T14:01:23.204Z,76.00
2022-10-20T14:03:54.042Z,76.00
2022-10-20T14:06:35.469Z,76.00
2022-10-20T14:09:17.883Z,76.00
2022-10-20T14:12:00.764Z,76.00
2022-10-20T14:14:30.087Z,76.00
2022-10-20T14:17:00.943Z,76.10
2022-10-20T14:19:30.899Z,76.00
2022-10-20T14:22:11.110Z,76.10
2022-10-20T14:24:42.980Z,76.00
2022-10-20T14:27:21.912Z,76.00
2022-10-20T14:29:50.465Z,76.00
2022-10-20T14:32:23.873Z,76.00
2022-10-20T14:35:20.778Z,76.00
2022-10-20T14:38:06.327Z,76.00
2022-10-20T14:40:36.059Z,76.00
2022-10-20T14:43:36.904Z,76.00
2022-10-20T14:46:06.057Z,76.00
2022-10-20T14:48:37.822Z,76.00
2022-10-20T14:51:32.952Z,76.00
2022-10-20T14:54:20.963Z,76.00
2022-10-20T14:56:54.067Z,76.00
2022-10-20T14:59:23.613Z,76.00
2022-10-20T15:02:15.093Z,76.00
2022-10-20T15:04:43.319Z,76.00
2022-10-20T15:07:17.461Z,76.10
2022-10-20T15:09:50.042Z,76.10
2022-10-20T15:12:30.788Z,76.00
2022-10-20T15:15:37.566Z,76.00
2022-10-20T15:18:07.316Z,76.10
2022-10-20T15:20:37.903Z,76.10
2022-10-20T15:23:14.256Z,76.10
2022-10-20T15:25:50.455Z,76.10
2022-10-20T15:28:30.853Z,76.10
2022-10-20T15:30:59.740Z,76.10
2022-10-20T15:33:27.258Z,76.10
2022-10-20T15:35:54.777Z,76.10
2022-10-20T15:38:22.087Z,76.10
2022-10-20T15:40:49.257Z,76.10
2022-10-20T15:43:18.670Z,76.10
2022-10-20T15:45:51.377Z,76.10
2022-10-20T15:48:19.285Z,76.10
2022-10-20T15:50:47.372Z,76.10
2022-10-20T15:53:17.890Z,76.10
2022-10-20T15:55:45.109Z,76.10
2022-10-20T15:58:12.178Z,76.10
2022-10-20T16:00:39.180Z,76.10
2022-10-20T16:03:06.392Z,76.10
2022-10-20T16:05:34.083Z,76.10
2022-10-20T16:08:01.313Z,76.10
2022-10-20T16:10:31.691Z,76.10
2022-10-20T16:12:58.737Z,76.10
2022-10-20T16:15:30.531Z,76.10
2022-10-20T16:17:58.672Z,76.10
2022-10-20T16:20:25.584Z,76.10
2022-10-20T16:22:52.895Z,76.20
2022-10-20T16:25:20.021Z,76.20
2022-10-20T16:27:47.003Z,76.20
2022-10-20T16:30:14.039Z,76.20
2022-10-20T16:32:41.702Z,76.20
2022-10-20T16:35:09.397Z,76.20
2022-10-20T16:37:36.707Z,76.20
2022-10-20T16:40:04.325Z,76.20
2022-10-20T16:42:31.450Z,76.20
2022-10-20T16:44:58.928Z,76.20
2022-10-20T16:47:26.687Z,76.20
2022-10-20T16:49:54.063Z,76.20
2022-10-20T16:52:21.160Z,76.20
2022-10-20T16:54:48.253Z,76.20
2022-10-20T16:57:15.623Z,76.20
2022-10-20T16:59:45.127Z,76.20
2022-10-20T17:02:13.018Z,76.20
2022-10-20T17:04:39.906Z,76.20
2022-10-20T17:07:08.736Z,76.20
2022-10-20T17:09:35.923Z,76.20
2022-10-20T17:12:02.949Z,76.20
2022-10-20T17:14:29.908Z,76.20
2022-10-20T17:16:56.901Z,76.20
2022-10-20T17:19:23.878Z,76.20
2022-10-20T17:21:55.213Z,76.20
2022-10-20T17:24:24.529Z,76.20
2022-10-20T17:26:51.578Z,76.20
2022-10-20T17:29:23.724Z,76.20
2022-10-20T17:31:52.892Z,76.20
2022-10-20T17:34:19.861Z,76.20
2022-10-20T17:36:46.874Z,76.20
2022-10-20T17:39:16.555Z,76.20
2022-10-20T17:41:43.750Z,76.20
2022-10-20T17:44:10.784Z,76.20
2022-10-20T17:46:38.972Z,76.20
2022-10-20T17:49:06.552Z,76.20
2022-10-20T17:51:34.725Z,76.20
2022-10-20T17:54:02.759Z,76.20
2022-10-20T17:56:36.231Z,76.20
2022-10-20T17:59:06.554Z,76.30
2022-10-20T18:01:36.374Z,76.20
2022-10-20T18:04:09.352Z,76.20
2022-10-20T18:06:36.945Z,76.30
2022-10-20T18:09:12.383Z,76.30
2022-10-20T18:11:41.341Z,76.20
2022-10-20T18:14:08.668Z,76.20
2022-10-20T18:16:38.126Z,76.20
2022-10-20T18:19:06.175Z,76.30
2022-10-20T18:21:33.641Z,76.30
2022-10-20T18:24:08.577Z,76.30
2022-10-20T18:26:36.887Z,76.30
2022-10-20T18:29:09.138Z,76.30
2022-10-20T18:31:37.928Z,76.30
2022-10-20T18:34:07.399Z,76.30
2022-10-20T18:36:42.040Z,76.30
2022-10-20T18:39:13.685Z,76.30
2022-10-20T18:41:43.288Z,76.30
2022-10-20T18:44:15.626Z,76.30
2022-10-20T18:46:42.951Z,76.30
2022-10-20T18:49:13.651Z,76.30
2022-10-20T18:51:53.177Z,76.30
2022-10-20T18:54:21.376Z,76.30
2022-10-20T18:56:48.348Z,76.30
2022-10-20T18:59:17.311Z,76.30
2022-10-20T19:01:45.180Z,76.30
2022-10-20T19:04:12.364Z,76.30
2022-10-20T19:06:43.080Z,76.30
2022-10-20T19:09:21.331Z,76.30
2022-10-20T19:14:17.989Z,76.30
2022-10-20T19:16:51.560Z,76.30
2022-10-20T19:19:18.562Z,76.30
2022-10-20T19:21:46.031Z,76.30
2022-10-20T19:24:19.254Z,76.30
2022-10-20T19:26:57.568Z,76.30
2022-10-20T19:29:37.124Z,76.30
2022-10-20T19:32:05.969Z,76.30
2022-10-20T19:34:38.503Z,76.30
2022-10-20T19:37:07.832Z,76.30
2022-10-20T19:39:40.083Z,76.30
2022-10-20T19:42:09.043Z,76.30
2022-10-20T19:44:38.068Z,76.30
2022-10-20T19:47:05.343Z,76.30
2022-10-20T19:49:32.839Z,76.30
2022-10-20T19:52:00.274Z,76.40
2022-10-20T19:54:27.589Z,76.30
2022-10-20T19:56:54.534Z,76.40
2022-10-20T19:59:24.120Z,76.40
2022-10-20T20:01:52.789Z,76.40
2022-10-20T20:04:19.922Z,76.40
2022-10-20T20:06:46.907Z,76.40
2022-10-20T20:09:15.884Z,76.40
2022-10-20T20:11:43.812Z,76.40
2022-10-20T20:14:14.479Z,76.40
2022-10-20T20:16:42.004Z,76.40
2022-10-20T20:19:09.639Z,76.40
2022-10-20T20:21:36.629Z,76.40
2022-10-20T20:24:05.325Z,76.40
2022-10-20T20:26:34.720Z,76.40
2022-10-20T20:29:02.205Z,76.40
2022-10-20T20:31:29.695Z,76.40
2022-10-20T20:33:57.158Z,76.40
2022-10-20T20:36:27.239Z,76.40
2022-10-20T20:38:59.349Z,76.40
2022-10-20T20:41:28.429Z,76.40
2022-10-20T20:43:55.701Z,76.40
2022-10-20T20:46:24.595Z,76.40
2022-10-20T20:48:51.668Z,76.40
2022-10-20T20:51:19.579Z,76.40
2022-10-20T20:53:47.488Z,76.40
2022-10-20T20:56:16.423Z,76.40
2022-10-20T20:58:53.615Z,76.40
2022-10-20T21:01:31.662Z,76.40
2022-10-20T21:04:04.670Z,76.40
2022-10-20T21:06:56.588Z,76.40
2022-10-20T21:09:20.186Z,76.40
2022-10-20T21:11:48.891Z,76.40
2022-10-20T21:14:15.963Z,76.40
2022-10-20T21:16:43.256Z,76.50
2022-10-20T21:19:10.885Z,76.40
2022-10-20T21:21:50.526Z,76.50
2022-10-20T21:24:18.607Z,76.40
2022-10-20T21:26:45.587Z,76.50
2022-10-20T21:29:12.504Z,76.40
2022-10-20T21:31:40.235Z,76.50
2022-10-20T21:34:07.636Z,76.50
2022-10-20T21:36:36.178Z,76.50
2022-10-20T21:39:05.476Z,76.50
2022-10-20T21:41:34.502Z,76.50
2022-10-20T21:44:02.478Z,76.50
2022-10-20T21:46:36.703Z,76.50
2022-10-20T21:49:06.992Z,76.50
2022-10-20T21:51:36.261Z,76.50
2022-10-20T21:54:06.395Z,76.50
2022-10-20T21:56:38.262Z,76.50
2022-10-20T21:59:06.068Z,76.50
2022-10-20T22:01:33.511Z,76.50
2022-10-20T22:04:01.174Z,76.50
2022-10-20T22:06:28.413Z,76.50
2022-10-20T22:08:57.814Z,76.50
2022-10-20T22:11:35.979Z,76.50
2022-10-20T22:14:03.695Z,76.50
2022-10-20T22:16:34.051Z,76.50
2022-10-20T22:19:07.517Z,76.50
2022-10-20T22:21:39.816Z,76.50
2022-10-20T22:24:07.561Z,76.50
2022-10-20T22:26:34.999Z,76.50
2022-10-20T22:29:03.584Z,76.50
2022-10-20T22:31:30.558Z,76.50
2022-10-20T22:33:58.630Z,76.50
2022-10-20T22:36:26.599Z,76.50
2022-10-20T22:38:54.128Z,76.50
2022-10-20T22:41:21.338Z,76.50
2022-10-20T22:43:48.548Z,76.50
2022-10-20T22:46:18.522Z,76.50
2022-10-20T22:48:46.354Z,76.50
2022-10-20T22:51:13.599Z,76.50
2022-10-20T22:53:41.350Z,76.50
2022-10-20T22:56:10.187Z,76.50
2022-10-20T22:58:38.148Z,76.50
2022-10-20T23:01:14.202Z,76.50
2022-10-20T23:03:41.401Z,76.50
2022-10-20T23:06:13.999Z,76.50
2022-10-20T23:08:43.756Z,76.50
2022-10-20T23:11:11.223Z,76.50
2022-10-20T23:13:38.633Z,76.50
2022-10-20T23:16:06.128Z,76.50
2022-10-20T23:18:33.196Z,76.50
2022-10-20T23:21:00.187Z,76.50
2022-10-20T23:23:27.457Z,76.50
2022-10-20T23:25:54.787Z,76.50
2022-10-20T23:28:21.923Z,76.50
2022-10-20T23:30:48.890Z,76.50
2022-10-20T23:33:16.390Z,76.50
2022-10-20T23:35:43.292Z,76.50
2022-10-20T23:38:10.395Z,76.60
2022-10-20T23:40:38.187Z,76.60
2022-10-20T23:43:05.083Z,76.60
2022-10-20T23:45:34.214Z,76.50
2022-10-20T23:48:04.035Z,76.60
2022-10-20T23:50:31.006Z,76.50
2022-10-20T23:52:57.939Z,76.50
2022-10-20T23:55:24.904Z,76.50
2022-10-20T23:57:51.854Z,76.60
